Time;durP1;ratioP1;P1;durP2;ratioP2;P2;SDS_P1;SDS_P2;PMS_P1;PMS_P2;Temp;Humidity;BMP_temperature;BMP_pressure;BME280_temperature;BME280_humidity;BME280_pressure;Samples;Min_cycle;Max_cycle;Signal;HPM_P1;HPM_P2
2021/08/15 00:01:25;;;;;;;162.87;111.90;;;;;;;;;;5054003;28;20450;-59
2021/08/15 00:03:57;;;;;;;85.40;57.97;;;;;;;;;;5053950;28;20453;-52
2021/08/15 00:06:25;;;;;;;13.73;8.27;;;;;;;;;;5054065;28;20418;-55
2021/08/15 00:08:56;;;;;;;38.80;25.77;;;;;;;;;;5054419;28;20458;-57
2021/08/15 00:11:49;;;;;;;192.60;125.00;;;;;;;;;;5053476;28;20458;-58
2021/08/15 00:14:16;;;;;;;377.00;252.50;;;;;;;;;;5053594;28;20495;-58
2021/08/15 00:16:43;;;;;;;99.70;59.80;;;;;;;;;;5054240;28;20665;-57
2021/08/15 00:19:22;;;;;;;10.90;8.27;;;;;;;;;;5053241;28;20458;-54
2021/08/15 00:21:49;;;;;;;16.03;11.00;;;;;;;;;;5052645;28;20469;-59
2021/08/15 00:24:18;;;;;;;63.73;41.33;;;;;;;;;;5053086;28;20470;-56
2021/08/15 00:26:49;;;;;;;190.13;112.80;;;;;;;;;;5053993;28;20477;-48
2021/08/15 00:29:17;;;;;;;446.10;309.33;;;;;;;;;;5053521;28;20458;-58
2021/08/15 00:31:44;;;;;;;157.47;102.03;;;;;;;;;;5053421;28;20418;-60
2021/08/15 00:34:12;;;;;;;88.17;57.13;;;;;;;;;;5053779;28;20479;-60
2021/08/15 00:36:39;;;;;;;137.37;83.53;;;;;;;;;;5053496;28;20501;-55
2021/08/15 00:39:07;;;;;;;32.53;21.80;;;;;;;;;;5053533;28;20491;-54
2021/08/15 00:41:36;;;;;;;14.80;8.50;;;;;;;;;;5053237;28;20461;-55
2021/08/15 00:44:03;;;;;;;16.70;8.27;;;;;;;;;;5048835;28;20426;-55
2021/08/15 00:46:39;;;;;;;51.13;33.87;;;;;;;;;;5033432;28;20465;-60
2021/08/15 00:49:07;;;;;;;75.83;46.30;;;;;;;;;;5044377;28;20453;-54
2021/08/15 00:51:34;;;;;;;55.63;35.63;;;;;;;;;;5053683;28;20442;-55
2021/08/15 00:54:02;;;;;;;31.67;18.53;;;;;;;;;;5053465;28;20442;-59
2021/08/15 00:56:29;;;;;;;26.90;15.27;;;;;;;;;;5051430;28;20494;-53
2021/08/15 00:58:58;;;;;;;31.63;20.53;;;;;;;;;;5053915;28;20458;-59
2021/08/15 01:01:25;;;;;;;42.17;27.60;;;;;;;;;;5053929;28;20452;-55
2021/08/15 01:03:52;;;;;;;30.07;18.10;;;;;;;;;;5053045;28;20904;-56
2021/08/15 01:06:51;;;;;;;19.60;12.23;;;;;;;;;;5053622;28;20454;-56
2021/08/15 01:09:18;;;;;;;23.97;17.13;;;;;;;;;;5053455;28;20462;-53
2021/08/15 01:11:46;;;;;;;27.33;19.00;;;;;;;;;;5053338;28;20502;-58
2021/08/15 01:14:17;;;;;;;26.73;16.57;;;;;;;;;;5053683;28;20455;-55
2021/08/15 01:16:44;;;;;;;30.57;20.87;;;;;;;;;;5053025;28;20489;-60
2021/08/15 01:19:12;;;;;;;42.20;25.67;;;;;;;;;;5052663;28;20434;-60
2021/08/15 01:21:44;;;;;;;140.73;111.30;;;;;;;;;;5054109;28;20450;-58
2021/08/15 01:24:12;;;;;;;37.87;26.83;;;;;;;;;;5053394;28;20565;-56
2021/08/15 01:26:48;;;;;;;73.97;44.00;;;;;;;;;;5053180;28;20442;-54
2021/08/15 01:29:32;;;;;;;57.17;39.93;;;;;;;;;;5035880;28;20508;-53
2021/08/15 01:32:00;;;;;;;81.27;48.67;;;;;;;;;;5050165;28;20535;-61
2021/08/15 01:34:28;;;;;;;76.27;48.97;;;;;;;;;;5052697;28;20488;-54
2021/08/15 01:37:10;;;;;;;43.27;28.30;;;;;;;;;;5053087;28;20494;-54
2021/08/15 01:39:40;;;;;;;21.20;13.13;;;;;;;;;;5044879;28;20509;-57
2021/08/15 01:42:07;;;;;;;24.10;12.30;;;;;;;;;;5053183;28;20489;-56
2021/08/15 01:44:36;;;;;;;16.80;9.80;;;;;;;;;;5052640;28;20435;-54
2021/08/15 01:47:04;;;;;;;10.33;7.03;;;;;;;;;;5052659;28;20426;-52
2021/08/15 01:49:52;;;;;;;14.27;8.10;;;;;;;;;;5096318;28;20452;-58
2021/08/15 01:52:19;;;;;;;11.37;7.60;;;;;;;;;;5104444;28;20458;-58
2021/08/15 01:54:46;;;;;;;28.83;16.80;;;;;;;;;;5051849;28;20462;-55
2021/08/15 01:57:28;;;;;;;15.10;10.43;;;;;;;;;;5052857;28;20467;-53
2021/08/15 01:59:57;;;;;;;25.80;16.33;;;;;;;;;;5048964;28;20449;-57
2021/08/15 02:02:24;;;;;;;39.43;24.53;;;;;;;;;;5052350;28;20464;-58
2021/08/15 02:04:58;;;;;;;43.80;28.57;;;;;;;;;;5052761;28;20437;-56
2021/08/15 02:07:27;;;;;;;60.00;33.37;;;;;;;;;;5053114;28;20521;-56
2021/08/15 02:09:54;;;;;;;66.23;43.07;;;;;;;;;;5053030;28;20454;-57
2021/08/15 02:12:31;;;;;;;175.93;103.37;;;;;;;;;;5052764;28;20458;-54
2021/08/15 02:15:00;;;;;;;122.77;63.90;;;;;;;;;;5053904;28;20457;-54
2021/08/15 02:17:27;;;;;;;82.50;48.60;;;;;;;;;;5055174;28;20454;-57
2021/08/15 02:19:58;;;;;;;50.37;29.50;;;;;;;;;;5056071;28;20429;-53
2021/08/15 02:22:25;;;;;;;73.53;41.83;;;;;;;;;;5055863;28;20438;-59
2021/08/15 02:24:53;;;;;;;88.33;49.07;;;;;;;;;;5055852;28;20526;-58
2021/08/15 02:27:36;;;;;;;73.93;39.43;;;;;;;;;;5055689;28;20544;-54
2021/08/15 02:30:05;;;;;;;37.63;23.90;;;;;;;;;;5055871;28;20458;-55
2021/08/15 02:32:32;;;;;;;23.40;15.93;;;;;;;;;;5054775;28;20459;-58
2021/08/15 02:35:02;;;;;;;16.10;9.97;;;;;;;;;;5055639;28;20434;-58
2021/08/15 02:37:30;;;;;;;16.37;9.27;;;;;;;;;;5055742;28;20479;-60
2021/08/15 02:39:59;;;;;;;15.13;8.23;;;;;;;;;;5055871;28;20494;-56
2021/08/15 02:42:36;;;;;;;13.47;8.27;;;;;;;;;;5055688;28;20449;-60
2021/08/15 02:45:05;;;;;;;15.37;8.60;;;;;;;;;;5038000;28;20453;-54
2021/08/15 02:47:33;;;;;;;19.77;8.97;;;;;;;;;;5055452;28;20442;-59
2021/08/15 02:50:16;;;;;;;13.50;9.07;;;;;;;;;;5055950;28;20422;-58
2021/08/15 02:52:46;;;;;;;17.73;7.57;;;;;;;;;;5052964;28;20498;-56
2021/08/15 02:55:13;;;;;;;11.03;7.83;;;;;;;;;;5055376;28;20474;-51
2021/08/15 02:57:50;;;;;;;11.10;8.20;;;;;;;;;;5055198;28;20442;-53
2021/08/15 03:00:19;;;;;;;11.17;7.23;;;;;;;;;;5035667;28;20430;-56
2021/08/15 03:02:46;;;;;;;15.37;7.03;;;;;;;;;;5048418;28;20450;-58
2021/08/15 03:05:16;;;;;;;36.43;27.70;;;;;;;;;;5054082;28;20497;-58
2021/08/15 03:07:43;;;;;;;24.40;16.70;;;;;;;;;;5055137;28;20447;-57
2021/08/15 03:10:11;;;;;;;36.00;24.30;;;;;;;;;;5054438;28;20459;-57
2021/08/15 03:13:08;;;;;;;24.70;18.20;;;;;;;;;;5055234;28;20430;-57
2021/08/15 03:15:40;;;;;;;21.10;12.47;;;;;;;;;;5054577;28;20746;-55
2021/08/15 03:18:07;;;;;;;40.40;26.70;;;;;;;;;;5054821;27;20450;-57
2021/08/15 03:20:35;;;;;;;37.47;23.27;;;;;;;;;;5054494;28;20483;-50
2021/08/15 03:23:03;;;;;;;15.80;8.80;;;;;;;;;;5054854;28;20492;-55
2021/08/15 03:25:30;;;;;;;23.17;14.77;;;;;;;;;;5054463;28;20469;-59
2021/08/15 03:27:59;;;;;;;32.63;23.63;;;;;;;;;;5053328;28;20425;-60
2021/08/15 03:30:26;;;;;;;25.37;14.37;;;;;;;;;;5053965;28;20449;-57
2021/08/15 03:32:55;;;;;;;21.80;10.10;;;;;;;;;;5054663;28;20466;-58
2021/08/15 03:35:22;;;;;;;10.50;7.63;;;;;;;;;;5054861;28;20461;-54
2021/08/15 03:37:49;;;;;;;13.93;7.90;;;;;;;;;;5054828;28;20465;-57
2021/08/15 03:40:17;;;;;;;9.43;5.77;;;;;;;;;;5054568;28;20446;-59
2021/08/15 03:42:55;;;;;;;15.93;8.27;;;;;;;;;;5054193;28;20471;-56
2021/08/15 03:45:22;;;;;;;14.93;7.90;;;;;;;;;;5054693;28;20446;-54
2021/08/15 03:47:49;;;;;;;11.03;6.83;;;;;;;;;;5054321;28;20473;-58
2021/08/15 03:50:21;;;;;;;11.93;7.57;;;;;;;;;;5054445;28;20445;-58
2021/08/15 03:52:48;;;;;;;17.03;7.77;;;;;;;;;;5054488;28;20959;-55
2021/08/15 03:55:15;;;;;;;9.80;7.00;;;;;;;;;;5054566;28;20477;-56
2021/08/15 03:57:58;;;;;;;11.83;7.37;;;;;;;;;;5054124;28;20493;-59
2021/08/15 04:00:25;;;;;;;9.30;6.50;;;;;;;;;;5053820;28;20454;-57
2021/08/15 04:02:52;;;;;;;12.17;7.70;;;;;;;;;;5053889;28;20473;-55
2021/08/15 04:05:44;;;;;;;10.40;6.63;;;;;;;;;;5053421;28;20778;-53
2021/08/15 04:08:12;;;;;;;14.10;7.40;;;;;;;;;;5052310;28;20504;-58
2021/08/15 04:10:39;;;;;;;11.63;6.80;;;;;;;;;;5054301;28;20458;-55
2021/08/15 04:13:07;;;;;;;17.73;6.90;;;;;;;;;;5053971;28;20547;-58
2021/08/15 04:15:34;;;;;;;12.87;7.40;;;;;;;;;;5053717;28;20442;-59
2021/08/15 04:18:20;;;;;;;10.43;7.03;;;;;;;;;;5053666;28;20457;-58
2021/08/15 04:20:47;;;;;;;10.27;6.90;;;;;;;;;;5053082;28;20472;-58
2021/08/15 04:23:16;;;;;;;11.77;7.53;;;;;;;;;;5053401;28;20445;-57
2021/08/15 04:25:54;;;;;;;11.63;7.63;;;;;;;;;;5053413;28;20442;-57
2021/08/15 04:28:23;;;;;;;16.60;8.00;;;;;;;;;;5053334;28;20505;-55
2021/08/15 04:30:50;;;;;;;13.87;7.60;;;;;;;;;;5053454;28;20457;-60
2021/08/15 04:33:20;;;;;;;18.80;8.00;;;;;;;;;;5053281;28;20462;-59
2021/08/15 04:35:47;;;;;;;13.33;7.50;;;;;;;;;;5052832;28;20430;-59
2021/08/15 04:38:18;;;;;;;12.50;8.20;;;;;;;;;;5052451;28;20462;-60
2021/08/15 04:40:45;;;;;;;15.50;7.97;;;;;;;;;;5053145;28;20461;-59
2021/08/15 04:43:12;;;;;;;15.67;7.67;;;;;;;;;;5053246;28;20461;-55
2021/08/15 04:45:49;;;;;;;12.93;8.57;;;;;;;;;;5052808;28;20480;-59
2021/08/15 04:48:16;;;;;;;14.53;7.63;;;;;;;;;;5053220;28;20477;-57
2021/08/15 04:50:43;;;;;;;16.23;7.63;;;;;;;;;;5053025;28;20454;-58
2021/08/15 04:53:11;;;;;;;15.60;7.63;;;;;;;;;;5053444;28;20491;-58
2021/08/15 04:55:40;;;;;;;14.17;8.10;;;;;;;;;;5052873;28;20461;-50
2021/08/15 04:58:07;;;;;;;14.40;8.30;;;;;;;;;;5053247;28;20466;-47
2021/08/15 05:01:10;;;;;;;12.53;7.03;;;;;;;;;;5053735;28;20445;-56
2021/08/15 05:03:38;;;;;;;13.43;7.03;;;;;;;;;;5051092;28;20473;-59
2021/08/15 05:06:05;;;;;;;13.00;7.50;;;;;;;;;;5053253;28;20457;-52
2021/08/15 05:08:52;;;;;;;23.30;7.77;;;;;;;;;;5052813;28;20472;-58
2021/08/15 05:11:21;;;;;;;20.27;8.00;;;;;;;;;;5053226;28;20648;-51
2021/08/15 05:13:49;;;;;;;12.00;8.13;;;;;;;;;;5053378;28;20451;-56
2021/08/15 05:16:20;;;;;;;12.43;7.87;;;;;;;;;;5053209;28;20482;-55
2021/08/15 05:18:47;;;;;;;12.37;7.63;;;;;;;;;;5053033;28;20458;-55
2021/08/15 05:21:14;;;;;;;14.33;8.23;;;;;;;;;;5052628;28;20457;-51
2021/08/15 05:23:45;;;;;;;15.90;7.47;;;;;;;;;;5053283;28;20461;-58
2021/08/15 05:26:12;;;;;;;12.23;8.07;;;;;;;;;;5052376;28;20454;-57
2021/08/15 05:28:40;;;;;;;14.53;8.20;;;;;;;;;;5052711;28;20453;-50
2021/08/15 05:31:10;;;;;;;13.40;7.80;;;;;;;;;;5053453;28;20462;-60
2021/08/15 05:33:37;;;;;;;12.30;7.50;;;;;;;;;;5052551;28;20539;-56
2021/08/15 05:36:05;;;;;;;20.10;8.00;;;;;;;;;;5053114;28;20504;-56
2021/08/15 05:39:01;;;;;;;12.73;7.00;;;;;;;;;;5053759;28;20458;-58
2021/08/15 05:41:31;;;;;;;16.40;9.40;;;;;;;;;;5051336;28;20474;-55
2021/08/15 05:43:59;;;;;;;17.60;8.40;;;;;;;;;;5052941;28;20454;-60
2021/08/15 05:46:46;;;;;;;12.80;7.17;;;;;;;;;;5052445;28;20454;-57
2021/08/15 05:49:13;;;;;;;15.90;8.50;;;;;;;;;;5053583;28;20495;-56
2021/08/15 05:51:40;;;;;;;18.47;9.00;;;;;;;;;;5056447;28;20426;-58
2021/08/15 05:54:26;;;;;;;17.27;7.47;;;;;;;;;;5056239;28;20434;-54
2021/08/15 05:56:53;;;;;;;14.40;6.93;;;;;;;;;;5056608;28;20489;-53
2021/08/15 05:59:22;;;;;;;14.60;7.73;;;;;;;;;;5056741;28;20442;-53
2021/08/15 06:02:13;;;;;;;12.67;8.10;;;;;;;;;;5056373;28;20449;-51
2021/08/15 06:04:41;;;;;;;10.63;7.10;;;;;;;;;;5054923;28;20481;-54
2021/08/15 06:07:10;;;;;;;14.50;7.73;;;;;;;;;;5056851;28;20458;-60
2021/08/15 06:09:37;;;;;;;12.40;7.77;;;;;;;;;;5056395;28;20489;-59
2021/08/15 06:12:05;;;;;;;9.87;6.47;;;;;;;;;;5055876;28;20438;-52
2021/08/15 06:14:56;;;;;;;10.90;6.90;;;;;;;;;;5056310;28;20434;-58
2021/08/15 06:17:25;;;;;;;11.63;7.00;;;;;;;;;;5056337;28;20503;-54
2021/08/15 06:19:53;;;;;;;14.80;7.00;;;;;;;;;;5056700;28;20450;-58
2021/08/15 06:22:22;;;;;;;13.40;7.13;;;;;;;;;;5056472;28;20525;-55
2021/08/15 06:24:49;;;;;;;14.93;8.30;;;;;;;;;;5056317;28;20475;-59
2021/08/15 06:27:16;;;;;;;13.17;7.23;;;;;;;;;;5056775;28;20444;-57
2021/08/15 06:29:44;;;;;;;13.07;6.60;;;;;;;;;;5056538;28;20475;-58
2021/08/15 06:32:12;;;;;;;12.60;7.60;;;;;;;;;;5115852;27;20479;-56
2021/08/15 06:34:41;;;;;;;13.50;7.77;;;;;;;;;;5056611;28;20577;-53
2021/08/15 06:40:20;;;;;;;16.33;7.73;;;;;;;;;;5059631;27;20479;-61
2021/08/15 06:42:47;;;;;;;13.13;7.27;;;;;;;;;;5055588;27;20454;-58
2021/08/15 06:45:21;;;;;;;11.80;6.13;;;;;;;;;;5055291;27;20472;-59
2021/08/15 06:47:48;;;;;;;11.20;6.10;;;;;;;;;;5055897;28;20833;-54
2021/08/15 06:50:17;;;;;;;8.63;6.20;;;;;;;;;;5055655;28;20480;-57
2021/08/15 06:53:13;;;;;;;11.97;6.10;;;;;;;;;;5055884;28;20423;-58
2021/08/15 06:55:40;;;;;;;12.57;6.37;;;;;;;;;;5055984;28;20438;-59
2021/08/15 06:58:07;;;;;;;19.43;6.93;;;;;;;;;;5055397;28;20523;-52
2021/08/15 07:00:44;;;;;;;11.93;6.10;;;;;;;;;;5055066;28;20523;-56
2021/08/15 07:03:12;;;;;;;12.67;6.43;;;;;;;;;;5055401;28;20453;-51
2021/08/15 07:05:41;;;;;;;13.47;6.97;;;;;;;;;;5056251;28;20446;-54
2021/08/15 07:08:16;;;;;;;11.73;6.47;;;;;;;;;;5056029;28;20517;-58
2021/08/15 07:10:47;;;;;;;9.57;6.00;;;;;;;;;;5055771;28;20458;-57
2021/08/15 07:13:19;;;;;;;15.90;7.10;;;;;;;;;;5057182;28;20463;-57
2021/08/15 07:15:53;;;;;;;11.73;5.70;;;;;;;;;;5055489;28;20496;-57
2021/08/15 07:18:22;;;;;;;15.50;6.30;;;;;;;;;;5055513;28;20497;-57
2021/08/15 07:20:54;;;;;;;9.70;5.33;;;;;;;;;;5055443;28;20446;-59
2021/08/15 07:23:32;;;;;;;11.67;6.47;;;;;;;;;;5055530;28;20487;-58
2021/08/15 07:26:02;;;;;;;12.07;5.60;;;;;;;;;;5054784;28;20458;-55
2021/08/15 07:28:29;;;;;;;10.10;5.63;;;;;;;;;;5055162;28;20476;-54
2021/08/15 07:31:04;;;;;;;10.70;5.10;;;;;;;;;;5054932;28;20458;-55
2021/08/15 07:33:32;;;;;;;9.30;4.90;;;;;;;;;;5053150;28;20533;-51
2021/08/15 07:36:01;;;;;;;8.10;5.40;;;;;;;;;;5054851;28;20473;-54
2021/08/15 07:38:29;;;;;;;8.97;5.20;;;;;;;;;;5055118;28;20481;-59
2021/08/15 07:40:59;;;;;;;9.97;5.07;;;;;;;;;;5054988;28;20472;-57
2021/08/15 07:43:34;;;;;;;12.60;5.73;;;;;;;;;;5054904;28;20438;-55
2021/08/15 07:46:02;;;;;;;8.93;4.50;;;;;;;;;;5054430;28;20465;-53
2021/08/15 07:48:29;;;;;;;11.20;5.50;;;;;;;;;;5054578;28;20454;-60
2021/08/15 07:51:00;;;;;;;10.23;5.17;;;;;;;;;;5054646;28;20473;-56
2021/08/15 07:53:29;;;;;;;11.00;5.07;;;;;;;;;;5038272;28;20446;-58
2021/08/15 07:55:59;;;;;;;8.60;4.53;;;;;;;;;;5054059;28;20442;-57
2021/08/15 07:58:26;;;;;;;13.30;6.67;;;;;;;;;;5054175;28;20490;-60
2021/08/15 08:00:54;;;;;;;14.80;5.10;;;;;;;;;;5054001;28;20465;-58
2021/08/15 08:06:26;;;;;;;10.73;5.30;;;;;;;;;;5054444;28;20512;-56
2021/08/15 08:08:54;;;;;;;8.70;5.47;;;;;;;;;;5054470;28;20457;-59
2021/08/15 08:11:22;;;;;;;6.50;3.80;;;;;;;;;;5054482;28;20442;-58
2021/08/15 08:13:50;;;;;;;10.53;4.70;;;;;;;;;;5054333;28;20474;-57
2021/08/15 08:16:18;;;;;;;12.13;5.60;;;;;;;;;;5054613;28;20593;-57
2021/08/15 08:18:54;;;;;;;10.60;5.13;;;;;;;;;;5054180;28;20498;-53
2021/08/15 08:21:22;;;;;;;8.60;4.87;;;;;;;;;;5092797;27;20502;-52
2021/08/15 08:23:49;;;;;;;8.93;5.17;;;;;;;;;;5095935;27;20444;-58
2021/08/15 08:26:19;;;;;;;11.60;5.00;;;;;;;;;;5054098;28;20446;-57
2021/08/15 08:29:01;;;;;;;7.63;4.90;;;;;;;;;;5053833;28;20451;-52
2021/08/15 08:31:34;;;;;;;12.90;5.77;;;;;;;;;;5077286;27;20466;-56
2021/08/15 08:34:01;;;;;;;10.70;5.20;;;;;;;;;;5158097;27;20481;-61
2021/08/15 08:36:29;;;;;;;8.23;4.90;;;;;;;;;;5087038;27;20454;-52
2021/08/15 08:39:16;;;;;;;8.67;4.80;;;;;;;;;;5125612;27;20483;-51
2021/08/15 08:41:45;;;;;;;8.53;4.87;;;;;;;;;;5077466;27;20494;-58
2021/08/15 08:44:12;;;;;;;8.43;4.90;;;;;;;;;;5078442;27;20450;-54
2021/08/15 08:46:43;;;;;;;9.23;5.40;;;;;;;;;;5131024;27;20715;-60
2021/08/15 08:49:10;;;;;;;9.00;5.20;;;;;;;;;;5053044;28;20450;-58
2021/08/15 08:51:38;;;;;;;10.70;4.93;;;;;;;;;;5053737;28;20442;-57
2021/08/15 08:54:14;;;;;;;9.87;5.53;;;;;;;;;;5053532;28;20464;-59
2021/08/15 08:56:41;;;;;;;8.13;4.40;;;;;;;;;;5053709;27;20441;-56
2021/08/15 08:59:12;;;;;;;6.30;4.07;;;;;;;;;;5053056;28;20493;-56
2021/08/15 09:01:42;;;;;;;7.07;4.27;;;;;;;;;;5052481;27;20458;-51
2021/08/15 09:04:11;;;;;;;7.07;4.27;;;;;;;;;;5053130;28;20466;-57
2021/08/15 09:06:52;;;;;;;8.30;4.90;;;;;;;;;;5053346;28;20501;-54
2021/08/15 09:09:20;;;;;;;13.33;4.30;;;;;;;;;;5053223;28;20446;-58
2021/08/15 09:11:49;;;;;;;7.40;3.90;;;;;;;;;;5053170;28;20487;-56
2021/08/15 09:14:22;;;;;;;9.47;4.60;;;;;;;;;;5051666;28;20478;-55
2021/08/15 09:16:58;;;;;;;7.77;4.47;;;;;;;;;;5050861;28;20516;-52
2021/08/15 09:19:26;;;;;;;9.00;4.40;;;;;;;;;;5019150;28;20450;-56
2021/08/15 09:21:58;;;;;;;5.07;2.97;;;;;;;;;;5033818;28;20539;-59
2021/08/15 09:24:26;;;;;;;8.10;4.37;;;;;;;;;;5032809;28;20455;-54
2021/08/15 09:27:01;;;;;;;6.20;4.03;;;;;;;;;;5101999;28;20431;-61
2021/08/15 09:29:29;;;;;;;7.53;4.20;;;;;;;;;;5042329;28;20534;-58
2021/08/15 09:31:57;;;;;;;7.37;3.43;;;;;;;;;;5039171;28;20451;-58
2021/08/15 09:34:41;;;;;;;7.07;3.90;;;;;;;;;;5050586;28;21862;-53
2021/08/15 09:37:20;;;;;;;7.13;3.40;;;;;;;;;;5035569;28;20499;-53
2021/08/15 09:39:48;;;;;;;10.90;4.90;;;;;;;;;;5051164;28;20484;-55
2021/08/15 09:42:15;;;;;;;7.27;4.77;;;;;;;;;;5052339;28;20458;-58
2021/08/15 09:47:44;;;;;;;6.40;4.00;;;;;;;;;;5041128;28;20462;-55
2021/08/15 09:50:19;;;;;;;9.83;5.50;;;;;;;;;;5041227;28;20491;-56
2021/08/15 09:52:47;;;;;;;11.10;5.70;;;;;;;;;;5094613;28;20436;-59
2021/08/15 09:55:20;;;;;;;9.60;4.23;;;;;;;;;;5118043;27;20466;-58
2021/08/15 09:57:48;;;;;;;6.60;3.67;;;;;;;;;;5075949;27;20501;-63
2021/08/15 10:00:30;;;;;;;7.90;3.70;;;;;;;;;;5054877;28;20491;-58
2021/08/15 10:03:18;;;;;;;5.30;3.23;;;;;;;;;;5091967;28;20465;-57
2021/08/15 10:05:46;;;;;;;6.83;3.50;;;;;;;;;;5121299;28;20481;-58
2021/08/15 10:08:14;;;;;;;7.60;3.47;;;;;;;;;;5043442;28;20446;-52
2021/08/15 10:11:00;;;;;;;10.57;4.93;;;;;;;;;;5084816;28;20473;-59
2021/08/15 10:13:27;;;;;;;6.80;4.40;;;;;;;;;;5051613;28;20516;-51
2021/08/15 10:15:56;;;;;;;6.50;4.63;;;;;;;;;;5051173;28;20454;-55
2021/08/15 10:18:43;;;;;;;10.90;4.27;;;;;;;;;;5040988;28;20794;-53
2021/08/15 10:21:14;;;;;;;6.80;3.73;;;;;;;;;;5107409;28;20461;-56
2021/08/15 10:23:43;;;;;;;10.30;4.90;;;;;;;;;;5077827;28;20438;-56
2021/08/15 10:26:45;;;;;;;8.33;3.60;;;;;;;;;;5050635;28;20454;-57
2021/08/15 10:29:31;;;;;;;7.50;3.70;;;;;;;;;;4952415;28;20461;-56
2021/08/15 10:32:23;;;;;;;8.73;4.10;;;;;;;;;;4952323;28;20450;-58
2021/08/15 10:35:15;;;;;;;7.20;4.23;;;;;;;;;;5049317;28;20454;-60
2021/08/15 10:38:08;;;;;;;7.33;3.87;;;;;;;;;;5051703;28;20481;-60
2021/08/15 10:40:57;;;;;;;6.60;3.90;;;;;;;;;;5066472;27;20446;-57
2021/08/15 10:43:43;;;;;;;7.67;5.13;;;;;;;;;;5112264;27;20462;-58
2021/08/15 10:46:13;;;;;;;6.57;3.27;;;;;;;;;;5051622;28;20437;-55
2021/08/15 10:48:52;;;;;;;7.50;3.77;;;;;;;;;;5064065;27;20480;-58
2021/08/15 10:51:34;;;;;;;5.87;3.50;;;;;;;;;;5034349;28;20467;-55
2021/08/15 10:54:02;;;;;;;8.30;3.40;;;;;;;;;;5049352;28;20446;-51
2021/08/15 10:56:54;;;;;;;5.33;3.30;;;;;;;;;;5038076;28;20451;-52
2021/08/15 10:59:34;;;;;;;10.80;3.77;;;;;;;;;;5029021;27;20585;-55
2021/08/15 11:02:18;;;;;;;7.37;3.47;;;;;;;;;;5043012;28;20533;-54
2021/08/15 11:04:56;;;;;;;7.40;3.83;;;;;;;;;;5051605;28;20510;-57
2021/08/15 11:07:34;;;;;;;7.87;2.90;;;;;;;;;;5043546;28;20450;-56
2021/08/15 11:10:10;;;;;;;7.97;3.70;;;;;;;;;;5034610;28;20471;-60
2021/08/15 11:12:37;;;;;;;6.80;3.27;;;;;;;;;;5049511;28;20497;-54
2021/08/15 11:15:10;;;;;;;9.00;3.07;;;;;;;;;;5047503;28;20478;-60
2021/08/15 11:17:43;;;;;;;7.10;4.10;;;;;;;;;;5049153;28;20505;-57
2021/08/15 11:20:32;;;;;;;9.60;2.90;;;;;;;;;;5033898;28;20477;-60
2021/08/15 11:23:10;;;;;;;4.80;3.17;;;;;;;;;;5045639;28;20454;-54
2021/08/15 11:25:56;;;;;;;5.53;2.77;;;;;;;;;;5050832;28;20462;-60
2021/08/15 11:28:24;;;;;;;5.87;2.87;;;;;;;;;;5050294;28;20454;-58
2021/08/15 11:30:55;;;;;;;5.60;3.33;;;;;;;;;;5051527;28;20454;-60
2021/08/15 11:33:36;;;;;;;10.80;3.50;;;;;;;;;;5050549;28;20461;-54
2021/08/15 11:36:04;;;;;;;6.27;3.77;;;;;;;;;;5049907;28;20453;-55
2021/08/15 11:38:31;;;;;;;9.10;3.57;;;;;;;;;;5049601;28;20486;-59
2021/08/15 11:41:02;;;;;;;27.67;5.17;;;;;;;;;;5048720;28;20446;-57
2021/08/15 11:43:29;;;;;;;6.17;4.90;;;;;;;;;;5039406;28;20463;-55
2021/08/15 11:46:00;;;;;;;7.77;4.13;;;;;;;;;;5044322;28;20465;-55
2021/08/15 11:48:34;;;;;;;12.73;5.63;;;;;;;;;;5048707;28;20465;-54
2021/08/15 11:51:04;;;;;;;6.77;3.27;;;;;;;;;;5048908;28;20476;-55
2021/08/15 11:53:36;;;;;;;6.47;3.70;;;;;;;;;;5050571;28;20454;-57
2021/08/15 11:56:24;;;;;;;4.50;2.73;;;;;;;;;;5049640;28;20486;-56
2021/08/15 11:58:51;;;;;;;10.73;3.30;;;;;;;;;;5050495;28;20466;-49
2021/08/15 12:01:20;;;;;;;11.50;4.27;;;;;;;;;;5049836;28;20477;-55
2021/08/15 12:03:56;;;;;;;16.10;6.10;;;;;;;;;;5047937;28;21054;-57
2021/08/15 12:06:26;;;;;;;7.83;5.10;;;;;;;;;;5029232;28;20522;-52
2021/08/15 12:09:02;;;;;;;11.17;6.63;;;;;;;;;;5047543;28;20720;-53
2021/08/15 12:11:30;;;;;;;6.67;2.97;;;;;;;;;;5051191;28;20565;-54
2021/08/15 12:14:17;;;;;;;5.83;3.77;;;;;;;;;;5050312;28;20494;-53
2021/08/15 12:16:58;;;;;;;8.63;4.30;;;;;;;;;;5049214;28;20801;-60
2021/08/15 12:19:26;;;;;;;9.13;3.47;;;;;;;;;;5050335;28;20512;-59
2021/08/15 12:22:17;;;;;;;7.30;3.20;;;;;;;;;;5067111;27;20565;-50
2021/08/15 12:24:57;;;;;;;10.03;4.30;;;;;;;;;;5041547;28;20476;-59
2021/08/15 12:27:27;;;;;;;6.30;4.07;;;;;;;;;;5050839;28;20453;-55
2021/08/15 12:30:04;;;;;;;5.00;3.07;;;;;;;;;;5049356;28;20485;-53
2021/08/15 12:32:33;;;;;;;10.23;5.57;;;;;;;;;;5031298;28;20439;-58
2021/08/15 12:35:12;;;;;;;9.90;3.50;;;;;;;;;;5030620;28;20592;-58
2021/08/15 12:37:53;;;;;;;6.40;3.47;;;;;;;;;;5028616;28;20534;-57
2021/08/15 12:43:22;;;;;;;5.63;3.10;;;;;;;;;;5028381;28;20459;-58
2021/08/15 12:45:51;;;;;;;5.90;3.90;;;;;;;;;;5036609;28;20458;-52
2021/08/15 12:48:20;;;;;;;7.63;4.30;;;;;;;;;;5050939;27;20474;-58
2021/08/15 12:50:59;;;;;;;11.13;4.67;;;;;;;;;;5049964;28;20479;-55
2021/08/15 12:53:32;;;;;;;5.20;3.77;;;;;;;;;;5050490;28;20485;-55
2021/08/15 12:56:14;;;;;;;9.77;3.80;;;;;;;;;;5050438;28;20502;-51
2021/08/15 12:58:41;;;;;;;12.60;4.43;;;;;;;;;;5045852;28;20485;-50
2021/08/15 13:01:12;;;;;;;5.90;3.30;;;;;;;;;;5048043;28;20559;-57
2021/08/15 13:03:59;;;;;;;6.77;3.33;;;;;;;;;;5048763;28;20496;-56
2021/08/15 13:06:26;;;;;;;5.53;3.60;;;;;;;;;;5048028;28;20454;-60
2021/08/15 13:08:59;;;;;;;9.60;4.20;;;;;;;;;;5065295;27;20427;-58
2021/08/15 13:11:39;;;;;;;8.17;2.70;;;;;;;;;;5048421;28;20463;-56
2021/08/15 13:14:08;;;;;;;4.53;2.63;;;;;;;;;;5040401;28;20478;-59
2021/08/15 13:16:36;;;;;;;5.67;3.20;;;;;;;;;;5049501;28;20449;-57
2021/08/15 13:19:03;;;;;;;4.53;2.83;;;;;;;;;;5048976;28;20469;-58
2021/08/15 13:21:31;;;;;;;9.93;4.30;;;;;;;;;;5045183;28;20443;-59
2021/08/15 13:24:00;;;;;;;5.80;2.93;;;;;;;;;;5035281;28;20446;-59
2021/08/15 13:26:29;;;;;;;8.37;2.80;;;;;;;;;;5049661;28;20450;-55
2021/08/15 13:28:57;;;;;;;10.50;3.63;;;;;;;;;;5048166;28;20474;-55
2021/08/15 13:31:29;;;;;;;6.43;3.83;;;;;;;;;;5033511;28;20539;-56
2021/08/15 13:33:59;;;;;;;6.40;3.30;;;;;;;;;;5044952;28;20489;-59
2021/08/15 13:36:27;;;;;;;4.33;2.93;;;;;;;;;;5048926;28;20453;-54
2021/08/15 13:38:55;;;;;;;14.00;5.53;;;;;;;;;;5149052;28;20565;-56
2021/08/15 13:41:24;;;;;;;9.40;3.73;;;;;;;;;;5153086;28;20430;-54
2021/08/15 13:43:52;;;;;;;4.27;2.70;;;;;;;;;;5153294;28;20461;-60
2021/08/15 13:49:11;;;;;;;6.40;3.40;;;;;;;;;;5043436;28;20459;-55
2021/08/15 13:51:42;;;;;;;4.20;2.70;;;;;;;;;;5047226;28;20469;-56
2021/08/15 13:54:26;;;;;;;7.83;4.00;;;;;;;;;;5047406;28;20434;-57
2021/08/15 13:56:58;;;;;;;7.43;3.90;;;;;;;;;;5109185;28;20467;-56
2021/08/15 13:59:56;;;;;;;5.93;2.93;;;;;;;;;;5124080;28;20493;-51
2021/08/15 14:02:28;;;;;;;6.00;3.37;;;;;;;;;;5068124;28;20489;-53
2021/08/15 14:04:58;;;;;;;7.10;3.73;;;;;;;;;;5047473;28;20501;-55
2021/08/15 14:07:46;;;;;;;5.60;3.30;;;;;;;;;;5046562;28;20454;-54
2021/08/15 14:10:17;;;;;;;9.87;4.77;;;;;;;;;;5104392;27;20468;-60
2021/08/15 14:12:53;;;;;;;7.37;3.77;;;;;;;;;;5049957;28;20553;-57
2021/08/15 14:15:24;;;;;;;14.00;3.47;;;;;;;;;;5087005;27;20900;-51
2021/08/15 14:17:53;;;;;;;9.63;3.30;;;;;;;;;;5060667;27;20530;-55
2021/08/15 14:20:21;;;;;;;7.50;4.20;;;;;;;;;;5076367;27;20519;-54
2021/08/15 14:22:48;;;;;;;7.07;3.83;;;;;;;;;;5058857;27;20487;-60
2021/08/15 14:28:14;;;;;;;8.40;3.90;;;;;;;;;;5047969;28;20466;-58
2021/08/15 14:30:43;;;;;;;14.27;4.03;;;;;;;;;;5067454;27;20496;-50
2021/08/15 14:33:16;;;;;;;8.83;3.40;;;;;;;;;;5098597;27;20485;-51
2021/08/15 14:35:50;;;;;;;4.50;2.70;;;;;;;;;;5050542;28;20461;-55
2021/08/15 14:38:35;;;;;;;5.23;3.10;;;;;;;;;;5114050;27;20461;-54
2021/08/15 14:41:07;;;;;;;7.00;3.17;;;;;;;;;;5049835;28;20473;-61
2021/08/15 14:43:37;;;;;;;4.60;3.33;;;;;;;;;;5069704;28;20458;-61
2021/08/15 14:46:08;;;;;;;6.53;3.70;;;;;;;;;;5055513;27;20561;-56
2021/08/15 14:48:39;;;;;;;6.43;4.00;;;;;;;;;;5049236;28;20530;-56
2021/08/15 14:51:11;;;;;;;5.63;3.43;;;;;;;;;;5050669;28;20466;-58
2021/08/15 14:53:40;;;;;;;9.17;4.67;;;;;;;;;;5032895;28;20477;-52
2021/08/15 14:56:11;;;;;;;4.43;2.40;;;;;;;;;;5051339;28;20458;-55
2021/08/15 14:58:41;;;;;;;7.10;3.23;;;;;;;;;;5042275;28;20546;-51
2021/08/15 15:04:25;;;;;;;9.10;3.60;;;;;;;;;;5045932;28;20457;-60
2021/08/15 15:07:07;;;;;;;5.70;2.70;;;;;;;;;;5041588;28;20817;-57
2021/08/15 15:09:50;;;;;;;6.63;2.87;;;;;;;;;;5053183;27;20461;-56
2021/08/15 15:12:18;;;;;;;6.27;4.10;;;;;;;;;;5046577;28;20473;-51
2021/08/15 15:14:51;;;;;;;4.70;3.00;;;;;;;;;;5072738;27;20473;-58
2021/08/15 15:17:36;;;;;;;5.63;2.93;;;;;;;;;;5047474;28;20500;-53
2021/08/15 15:20:08;;;;;;;6.63;4.30;;;;;;;;;;5043972;27;20479;-52
2021/08/15 15:22:36;;;;;;;7.50;3.20;;;;;;;;;;5049645;28;20446;-61
2021/08/15 15:25:04;;;;;;;6.53;4.57;;;;;;;;;;5048693;27;20463;-57